Douwe-s — PBMO — position and weather

sailwx.info

Track history (hours):
 
Tides and Currents Weather Stations Pressure Air Temp Water Temp Dewpoint Dewpoint Depression Visibility Wind Speed Wind Dir Waves Ship Positions

Douwe-s

Last reported at 2018-Jul-15 18:56 UTC. Time now 2018-Jul-15 19:08 UTC.
Position N 53°28' W 003°24'.

Length 95 m; draft 5.8 m.

Type: Cargo ship. MMSI: 244956000.

Date/timePositionNaut miles runAvg speedWind from/ knotsBaromVisibWave heightAir tempDewpointWater temp
2018-Jul-15 18:56N 53°28' W 003°24'0 0.1
2018-Jul-15 18:29N 53°28' W 003°24'0 0.0
2018-Jul-15 17:59N 53°28' W 003°24'0 0.0
2018-Jul-15 17:29N 53°28' W 003°24'0 0.0
2018-Jul-15 16:59N 53°28' W 003°24'0 0.0
2018-Jul-15 16:29N 53°28' W 003°24'0 0.1
2018-Jul-15 15:59N 53°28' W 003°24'0 0.0
2018-Jul-15 15:29N 53°28' W 003°24'0 0.0
2018-Jul-15 14:59N 53°28' W 003°24'0 0.0
2018-Jul-15 14:23N 53°28' W 003°24'0 0.0
2018-Jul-15 13:59N 53°28' W 003°24'0 0.0
2018-Jul-15 13:29N 53°28' W 003°24'0 0.1
2018-Jul-15 12:59N 53°28' W 003°24'0 0.2
2018-Jul-15 12:29N 53°28' W 003°24'0 0.0
2018-Jul-15 11:59N 53°28' W 003°24'0 0.0
2018-Jul-15 11:29N 53°28' W 003°24'0 0.0
2018-Jul-15 10:59N 53°28' W 003°24'0 0.0
2018-Jul-15 10:29N 53°28' W 003°24'0 0.0
2018-Jul-15 09:56N 53°28' W 003°24'0 0.0
2018-Jul-15 09:29N 53°28' W 003°24'0 0.0
2018-Jul-15 08:56N 53°28' W 003°24'0 0.0
2018-Jul-15 08:29N 53°28' W 003°24'0 0.0
2018-Jul-15 07:59N 53°28' W 003°24'0 0.1
2018-Jul-15 07:29N 53°28' W 003°24'0 0.1
2018-Jul-15 06:59N 53°28' W 003°24'0 0.1
2018-Jul-15 06:29N 53°28' W 003°24'0 0.0
2018-Jul-15 05:59N 53°28' W 003°24'0 0.0
2018-Jul-15 05:29N 53°28' W 003°24'0 0.0
2018-Jul-15 04:59N 53°28' W 003°24'0 0.0
2018-Jul-15 04:29N 53°28' W 003°24'0 0.0
2018-Jul-15 03:56N 53°28' W 003°24'0 0.0
2018-Jul-15 03:29N 53°28' W 003°24'0 0.0
2018-Jul-15 02:59N 53°28' W 003°24'0 0.0
2018-Jul-15 02:23N 53°28' W 003°24'0 0.0
2018-Jul-15 01:56N 53°28' W 003°24'0 0.0
2018-Jul-15 01:29N 53°28' W 003°24'0 0.0
2018-Jul-15 00:59N 53°28' W 003°24'0 0.1
2018-Jul-15 00:29N 53°28' W 003°24'0 0.1
2018-Jul-14 23:59N 53°28' W 003°24'0 0.0
2018-Jul-14 23:29N 53°28' W 003°24'0 0.0
2018-Jul-14 22:56N 53°28' W 003°24'0 0.0
2018-Jul-14 22:29N 53°28' W 003°24'0 0.0
2018-Jul-14 21:59N 53°28' W 003°24'0 0.0
2018-Jul-14 21:29N 53°28' W 003°24'0 0.0
2018-Jul-14 20:59N 53°28' W 003°24'0 0.0
2018-Jul-14 20:29N 53°28' W 003°24'0 0.0
2018-Jul-14 19:59N 53°28' W 003°24'0 0.1
2018-Jul-14 19:29N 53°28' W 003°24'1 3.0
2018-Jul-14 19:00N 53°29' W 003°26'510.4
2018-Jul-14 18:30N 53°30' W 003°34'510.4
2018-Jul-14 18:00N 53°30' W 003°43'24 9.0
2018-Jul-14 15:21N 53°30' W 004°23'3 7.4
2018-Jul-14 14:59N 53°30' W 004°28'  
2018-Jul-11 05:55N 39°50' W 009°50'610.2
2018-Jul-11 05:20N 39°44' W 009°50'710.1
2018-Jul-11 04:41N 39°37' W 009°50'410.2
2018-Jul-11 04:16N 39°33' W 009°50'510.8
2018-Jul-11 03:47N 39°27' W 009°50'310.9
2018-Jul-11 03:30N 39°24' W 009°50'810.7
2018-Jul-11 02:48N 39°17' W 009°50'310.3
2018-Jul-11 02:30N 39°14' W 009°50'510.6
2018-Jul-11 02:00N 39°09' W 009°50'510.8
2018-Jul-11 01:30N 39°03' W 009°50'510.4
2018-Jul-11 01:00N 38°58' W 009°50'610.4
2018-Jul-11 00:27N 38°52' W 009°50'510.5
2018-Jul-11 00:00N 38°48' W 009°50'510.6
2018-Jul-10 23:29N 38°42' W 009°50'510.1
2018-Jul-10 23:00N 38°38' W 009°47'510.8
2018-Jul-10 22:30N 38°35' W 009°41'510.4
2018-Jul-10 22:00N 38°32' W 009°36'510.2
2018-Jul-10 21:30N 38°30' W 009°30'510.3
2018-Jul-10 21:00N 38°27' W 009°24'510.5
2018-Jul-10 20:30N 38°25' W 009°19'510.2
2018-Jul-10 20:00N 38°23' W 009°12'510.7
2018-Jul-10 19:30N 38°24' W 009°06'611.1
2018-Jul-10 19:00N 38°26' W 008°59'611.0
2018-Jul-10 18:26N 38°31' W 008°53'1 0.7
2018-Jul-10 17:01N 38°31' W 008°52'0 0.0
2018-Jul-10 15:25N 38°31' W 008°52'0 0.0
2018-Jul-10 14:52N 38°31' W 008°52'0 0.0
2018-Jul-10 14:25N 38°31' W 008°52'0 0.0
2018-Jul-10 13:40N 38°31' W 008°52'0 0.0
2018-Jul-10 13:25N 38°31' W 008°52'0 0.0
2018-Jul-10 09:43N 38°31' W 008°52'0 0.0
2018-Jul-10 09:19N 38°31' W 008°52'0 0.0
2018-Jul-10 08:52N 38°31' W 008°52'0 0.0
2018-Jul-09 20:49N 38°31' W 008°52'0 0.0
2018-Jul-09 20:19N 38°31' W 008°52'0 0.0
2018-Jul-09 19:58N 38°31' W 008°52'0 0.0
2018-Jul-09 19:22N 38°31' W 008°52'0 0.0
2018-Jul-09 18:28N 38°31' W 008°52'0 0.0
2018-Jul-09 17:58N 38°31' W 008°52'0 0.0
2018-Jul-09 17:28N 38°31' W 008°52'0 0.0
2018-Jul-09 16:58N 38°31' W 008°52'0 0.0
2018-Jul-09 16:28N 38°31' W 008°52'0 0.0
2018-Jul-09 15:58N 38°31' W 008°52'0 0.0
2018-Jul-09 15:28N 38°31' W 008°52'0 0.0
2018-Jul-09 14:28N 38°31' W 008°52'0 0.0
2018-Jul-09 13:58N 38°31' W 008°52'0 0.0
2018-Jul-09 13:28N 38°31' W 008°52'0 0.0
2018-Jul-09 12:58N 38°31' W 008°52'0 0.0
2018-Jul-09 12:28N 38°31' W 008°52'0 0.0
2018-Jul-09 08:28N 38°31' W 008°52'0 0.0
2018-Jul-09 07:46N 38°31' W 008°52'0 0.0
2018-Jul-09 07:19N 38°31' W 008°52'0 0.0
2018-Jul-09 06:43N 38°31' W 008°52'0 0.0
2018-Jul-09 06:28N 38°31' W 008°52'0 0.0
2018-Jul-09 05:16N 38°31' W 008°52'0 0.0
2018-Jul-09 04:49N 38°31' W 008°52'0 0.0
2018-Jul-09 03:25N 38°31' W 008°52'0 0.0
2018-Jul-09 02:31N 38°31' W 008°52'0 0.0
2018-Jul-09 02:07N 38°31' W 008°52'0 0.0
2018-Jul-08 21:46N 38°31' W 008°52'0 0.0
2018-Jul-08 21:28N 38°31' W 008°52'0 0.0
2018-Jul-08 20:55N 38°31' W 008°52'0 0.0
2018-Jul-08 20:25N 38°31' W 008°52'0 0.0
2018-Jul-08 19:58N 38°31' W 008°52'0 0.0
2018-Jul-08 19:28N 38°31' W 008°52'0 0.0
2018-Jul-08 18:58N 38°31' W 008°52'0 0.0
2018-Jul-08 18:28N 38°31' W 008°52'0 0.0
2018-Jul-08 17:58N 38°31' W 008°52'0 0.0
2018-Jul-08 17:25N 38°31' W 008°52'0 0.0
2018-Jul-08 16:58N 38°31' W 008°52'0 0.0
2018-Jul-08 16:25N 38°31' W 008°52'0 0.0
2018-Jul-08 15:58N 38°31' W 008°52'0 0.0
2018-Jul-08 15:25N 38°31' W 008°52'0 0.0
2018-Jul-08 14:58N 38°31' W 008°52'0 0.0
2018-Jul-08 14:28N 38°31' W 008°52'0 0.0
2018-Jul-08 13:55N 38°31' W 008°52'0 0.0
2018-Jul-08 13:22N 38°31' W 008°52'0 0.0
2018-Jul-08 12:55N 38°31' W 008°52'0 0.0
2018-Jul-08 12:28N 38°31' W 008°52'0 0.0
2018-Jul-08 11:55N 38°31' W 008°52'0 0.0
2018-Jul-08 11:28N 38°31' W 008°52'0 0.0
2018-Jul-08 10:55N 38°31' W 008°52'0 0.0
2018-Jul-08 10:04N 38°31' W 008°52'0 0.0
2018-Jul-08 09:55N 38°31' W 008°52'0 0.0
2018-Jul-08 07:01N 38°31' W 008°52'0 0.0
2018-Jul-08 04:58N 38°31' W 008°52'0 0.0
2018-Jul-08 04:28N 38°31' W 008°52'0 0.0
2018-Jul-08 00:40N 38°31' W 008°52'0 0.0
2018-Jul-07 23:16N 38°31' W 008°52'0 0.0
2018-Jul-07 20:58N 38°31' W 008°52'0 0.0
2018-Jul-07 19:13N 38°31' W 008°52'0 0.0
2018-Jul-07 18:58N 38°31' W 008°52'0 0.0
2018-Jul-07 18:28N 38°31' W 008°52'0 0.0
2018-Jul-07 17:55N 38°31' W 008°52'0 0.0
2018-Jul-07 17:25N 38°31' W 008°52'0 0.0
2018-Jul-07 16:58N 38°31' W 008°52'0 0.0
2018-Jul-07 16:25N 38°31' W 008°52'0 0.0
2018-Jul-07 15:58N 38°31' W 008°52'0 0.0
2018-Jul-07 15:28N 38°31' W 008°52'0 0.0
2018-Jul-07 14:55N 38°31' W 008°52'0 0.0
2018-Jul-07 14:25N 38°31' W 008°52'0 0.0
2018-Jul-07 13:58N 38°31' W 008°52'0 0.0
2018-Jul-07 13:28N 38°31' W 008°52'0 0.0
2018-Jul-07 12:55N 38°31' W 008°52'0 0.0
2018-Jul-07 12:28N 38°31' W 008°52'0 0.0
2018-Jul-07 11:58N 38°31' W 008°52'0 0.0
2018-Jul-07 11:04N 38°31' W 008°52'0 0.0
2018-Jul-07 09:43N 38°31' W 008°52'0 0.0
2018-Jul-07 09:25N 38°31' W 008°52'0 0.0
2018-Jul-07 08:16N 38°31' W 008°52'0 0.0
2018-Jul-07 07:58N 38°31' W 008°52'0 0.0
2018-Jul-07 06:34N 38°31' W 008°52'0 0.0
2018-Jul-07 04:25N 38°31' W 008°52'0 0.0
2018-Jul-07 03:55N 38°31' W 008°52'0 0.0
2018-Jul-07 03:16N 38°31' W 008°52'0 0.0
2018-Jul-07 02:58N 38°31' W 008°52'0 0.0
2018-Jul-07 02:07N 38°31' W 008°52'0 0.0
2018-Jul-07 01:49N 38°31' W 008°52'0 0.0
2018-Jul-07 01:19N 38°31' W 008°52'0 0.0
2018-Jul-07 00:55N 38°31' W 008°52'0 0.0
2018-Jul-07 00:13N 38°31' W 008°52'0 0.0
2018-Jul-06 23:19N 38°31' W 008°52'0 0.0
2018-Jul-06 21:52N 38°31' W 008°52'0 0.0
2018-Jul-06 21:29N 38°31' W 008°52'0 0.7
2018-Jul-06 21:00N 38°31' W 008°53'3 5.2
2018-Jul-06 20:29N 38°29' W 008°56'510.8
2018-Jul-06 20:00N 38°25' W 009°00'4 7.6
2018-Jul-06 19:30N 38°22' W 009°00'1 1.0
2018-Jul-06 18:55N 38°21' W 009°00'1 1.1
2018-Jul-06 18:25N 38°21' W 009°01'1 1.1
2018-Jul-06 17:58N 38°22' W 009°01'1 1.2
2018-Jul-06 17:22N 38°22' W 009°02'0 1.2
2018-Jul-06 16:58N 38°22' W 009°03'1 1.2
2018-Jul-06 16:28N 38°22' W 009°04'1 1.3
2018-Jul-06 16:00N 38°23' W 009°04'1 1.5
2018-Jul-06 15:30N 38°23' W 009°04'4 7.8
2018-Jul-06 15:00N 38°24' W 009°09'510.4
2018-Jul-06 14:30N 38°24' W 009°16'611.6
2018-Jul-06 14:00N 38°27' W 009°22'611.9
2018-Jul-06 13:30N 38°31' W 009°28'611.8
2018-Jul-06 13:00N 38°35' W 009°34'611.4
2018-Jul-06 12:30N 38°38' W 009°40'611.4
2018-Jul-06 12:00N 38°43' W 009°42'611.6
2018-Jul-06 11:30N 38°49' W 009°43'611.7
2018-Jul-06 11:00N 38°55' W 009°43'611.8
2018-Jul-06 10:30N 39°01' W 009°43'611.7
2018-Jul-06 10:00N 39°06' W 009°44'612.8
2018-Jul-06 09:30N 39°13' W 009°44'11912.8
2018-Jul-06 00:14N 41°03' W 008°48'312.8
2018-Jul-05 23:59N 41°06' W 008°47'511.3
2018-Jul-05 23:30N 41°11' W 008°42'1 1.6
2018-Jul-05 22:58N 41°11' W 008°42'0 0.0
2018-Jul-05 22:28N 41°11' W 008°42'0 0.0
2018-Jul-05 21:58N 41°11' W 008°42'0 0.0
2018-Jul-05 21:28N 41°11' W 008°42'0 0.0
2018-Jul-05 20:58N 41°11' W 008°42'0 0.0
2018-Jul-05 20:28N 41°11' W 008°42'0 0.0
2018-Jul-05 19:58N 41°11' W 008°42'0 0.0
2018-Jul-05 19:28N 41°11' W 008°42'0 0.0
2018-Jul-05 18:58N 41°11' W 008°42'  
Track history (hours):
 
Tides and Currents Weather Stations Pressure Air Temp Water Temp Dewpoint Dewpoint Depression Visibility Wind Speed Wind Dir Waves Ship Positions

Douwe-s

Last reported at 2018-Jul-15 18:56 UTC. Time now 2018-Jul-15 19:08 UTC.
Position N 53°28' W 003°24'.

Length 95 m; draft 5.8 m.

Type: Cargo ship. MMSI: 244956000.

Date/timePositionNaut miles runAvg speedWind from/ knotsBaromVisibWave heightAir tempDewpointWater temp
2018-Jul-15 18:56N 53°28' W 003°24'0 0.1
2018-Jul-15 18:29N 53°28' W 003°24'0 0.0
2018-Jul-15 17:59N 53°28' W 003°24'0 0.0
2018-Jul-15 17:29N 53°28' W 003°24'0 0.0
2018-Jul-15 16:59N 53°28' W 003°24'0 0.0
2018-Jul-15 16:29N 53°28' W 003°24'0 0.1
2018-Jul-15 15:59N 53°28' W 003°24'0 0.0
2018-Jul-15 15:29N 53°28' W 003°24'0 0.0
2018-Jul-15 14:59N 53°28' W 003°24'0 0.0
2018-Jul-15 14:23N 53°28' W 003°24'0 0.0
2018-Jul-15 13:59N 53°28' W 003°24'0 0.0
2018-Jul-15 13:29N 53°28' W 003°24'0 0.1
2018-Jul-15 12:59N 53°28' W 003°24'0 0.2
2018-Jul-15 12:29N 53°28' W 003°24'0 0.0
2018-Jul-15 11:59N 53°28' W 003°24'0 0.0
2018-Jul-15 11:29N 53°28' W 003°24'0 0.0
2018-Jul-15 10:59N 53°28' W 003°24'0 0.0
2018-Jul-15 10:29N 53°28' W 003°24'0 0.0
2018-Jul-15 09:56N 53°28' W 003°24'0 0.0
2018-Jul-15 09:29N 53°28' W 003°24'0 0.0
2018-Jul-15 08:56N 53°28' W 003°24'0 0.0
2018-Jul-15 08:29N 53°28' W 003°24'0 0.0
2018-Jul-15 07:59N 53°28' W 003°24'0 0.1
2018-Jul-15 07:29N 53°28' W 003°24'0 0.1
2018-Jul-15 06:59N 53°28' W 003°24'0 0.1
2018-Jul-15 06:29N 53°28' W 003°24'0 0.0
2018-Jul-15 05:59N 53°28' W 003°24'0 0.0
2018-Jul-15 05:29N 53°28' W 003°24'0 0.0
2018-Jul-15 04:59N 53°28' W 003°24'0 0.0
2018-Jul-15 04:29N 53°28' W 003°24'0 0.0
2018-Jul-15 03:56N 53°28' W 003°24'0 0.0
2018-Jul-15 03:29N 53°28' W 003°24'0 0.0
2018-Jul-15 02:59N 53°28' W 003°24'0 0.0
2018-Jul-15 02:23N 53°28' W 003°24'0 0.0
2018-Jul-15 01:56N 53°28' W 003°24'0 0.0
2018-Jul-15 01:29N 53°28' W 003°24'0 0.0
2018-Jul-15 00:59N 53°28' W 003°24'0 0.1
2018-Jul-15 00:29N 53°28' W 003°24'0 0.1
2018-Jul-14 23:59N 53°28' W 003°24'0 0.0
2018-Jul-14 23:29N 53°28' W 003°24'0 0.0
2018-Jul-14 22:56N 53°28' W 003°24'0 0.0
2018-Jul-14 22:29N 53°28' W 003°24'0 0.0
2018-Jul-14 21:59N 53°28' W 003°24'0 0.0
2018-Jul-14 21:29N 53°28' W 003°24'0 0.0
2018-Jul-14 20:59N 53°28' W 003°24'0 0.0
2018-Jul-14 20:29N 53°28' W 003°24'0 0.0
2018-Jul-14 19:59N 53°28' W 003°24'0 0.1
2018-Jul-14 19:29N 53°28' W 003°24'1 3.0
2018-Jul-14 19:00N 53°29' W 003°26'510.4
2018-Jul-14 18:30N 53°30' W 003°34'510.4
2018-Jul-14 18:00N 53°30' W 003°43'24 9.0
2018-Jul-14 15:21N 53°30' W 004°23'3 7.4
2018-Jul-14 14:59N 53°30' W 004°28'  
2018-Jul-11 05:55N 39°50' W 009°50'610.2
2018-Jul-11 05:20N 39°44' W 009°50'710.1
2018-Jul-11 04:41N 39°37' W 009°50'410.2
2018-Jul-11 04:16N 39°33' W 009°50'510.8
2018-Jul-11 03:47N 39°27' W 009°50'310.9
2018-Jul-11 03:30N 39°24' W 009°50'810.7
2018-Jul-11 02:48N 39°17' W 009°50'310.3
2018-Jul-11 02:30N 39°14' W 009°50'510.6
2018-Jul-11 02:00N 39°09' W 009°50'510.8
2018-Jul-11 01:30N 39°03' W 009°50'510.4
2018-Jul-11 01:00N 38°58' W 009°50'610.4
2018-Jul-11 00:27N 38°52' W 009°50'510.5
2018-Jul-11 00:00N 38°48' W 009°50'510.6
2018-Jul-10 23:29N 38°42' W 009°50'510.1
2018-Jul-10 23:00N 38°38' W 009°47'510.8
2018-Jul-10 22:30N 38°35' W 009°41'510.4
2018-Jul-10 22:00N 38°32' W 009°36'510.2
2018-Jul-10 21:30N 38°30' W 009°30'510.3
2018-Jul-10 21:00N 38°27' W 009°24'510.5
2018-Jul-10 20:30N 38°25' W 009°19'510.2
2018-Jul-10 20:00N 38°23' W 009°12'510.7
2018-Jul-10 19:30N 38°24' W 009°06'611.1
2018-Jul-10 19:00N 38°26' W 008°59'611.0
2018-Jul-10 18:26N 38°31' W 008°53'1 0.7
2018-Jul-10 17:01N 38°31' W 008°52'0 0.0
2018-Jul-10 15:25N 38°31' W 008°52'0 0.0
2018-Jul-10 14:52N 38°31' W 008°52'0 0.0
2018-Jul-10 14:25N 38°31' W 008°52'0 0.0
2018-Jul-10 13:40N 38°31' W 008°52'0 0.0
2018-Jul-10 13:25N 38°31' W 008°52'0 0.0
2018-Jul-10 09:43N 38°31' W 008°52'0 0.0
2018-Jul-10 09:19N 38°31' W 008°52'0 0.0
2018-Jul-10 08:52N 38°31' W 008°52'0 0.0
2018-Jul-09 20:49N 38°31' W 008°52'0 0.0
2018-Jul-09 20:19N 38°31' W 008°52'0 0.0
2018-Jul-09 19:58N 38°31' W 008°52'0 0.0
2018-Jul-09 19:22N 38°31' W 008°52'0 0.0
2018-Jul-09 18:28N 38°31' W 008°52'0 0.0
2018-Jul-09 17:58N 38°31' W 008°52'0 0.0
2018-Jul-09 17:28N 38°31' W 008°52'0 0.0
2018-Jul-09 16:58N 38°31' W 008°52'0 0.0
2018-Jul-09 16:28N 38°31' W 008°52'0 0.0
2018-Jul-09 15:58N 38°31' W 008°52'0 0.0
2018-Jul-09 15:28N 38°31' W 008°52'0 0.0
2018-Jul-09 14:28N 38°31' W 008°52'0 0.0
2018-Jul-09 13:58N 38°31' W 008°52'0 0.0
2018-Jul-09 13:28N 38°31' W 008°52'0 0.0
2018-Jul-09 12:58N 38°31' W 008°52'0 0.0
2018-Jul-09 12:28N 38°31' W 008°52'0 0.0
2018-Jul-09 08:28N 38°31' W 008°52'0 0.0
2018-Jul-09 07:46N 38°31' W 008°52'0 0.0
2018-Jul-09 07:19N 38°31' W 008°52'0 0.0
2018-Jul-09 06:43N 38°31' W 008°52'0 0.0
2018-Jul-09 06:28N 38°31' W 008°52'0 0.0
2018-Jul-09 05:16N 38°31' W 008°52'0 0.0
2018-Jul-09 04:49N 38°31' W 008°52'0 0.0
2018-Jul-09 03:25N 38°31' W 008°52'0 0.0
2018-Jul-09 02:31N 38°31' W 008°52'0 0.0
2018-Jul-09 02:07N 38°31' W 008°52'0 0.0
2018-Jul-08 21:46N 38°31' W 008°52'0 0.0
2018-Jul-08 21:28N 38°31' W 008°52'0 0.0
2018-Jul-08 20:55N 38°31' W 008°52'0 0.0
2018-Jul-08 20:25N 38°31' W 008°52'0 0.0
2018-Jul-08 19:58N 38°31' W 008°52'0 0.0
2018-Jul-08 19:28N 38°31' W 008°52'0 0.0
2018-Jul-08 18:58N 38°31' W 008°52'0 0.0
2018-Jul-08 18:28N 38°31' W 008°52'0 0.0
2018-Jul-08 17:58N 38°31' W 008°52'0 0.0
2018-Jul-08 17:25N 38°31' W 008°52'0 0.0
2018-Jul-08 16:58N 38°31' W 008°52'0 0.0
2018-Jul-08 16:25N 38°31' W 008°52'0 0.0
2018-Jul-08 15:58N 38°31' W 008°52'0 0.0
2018-Jul-08 15:25N 38°31' W 008°52'0 0.0
2018-Jul-08 14:58N 38°31' W 008°52'0 0.0
2018-Jul-08 14:28N 38°31' W 008°52'0 0.0
2018-Jul-08 13:55N 38°31' W 008°52'0 0.0
2018-Jul-08 13:22N 38°31' W 008°52'0 0.0
2018-Jul-08 12:55N 38°31' W 008°52'0 0.0
2018-Jul-08 12:28N 38°31' W 008°52'0 0.0
2018-Jul-08 11:55N 38°31' W 008°52'0 0.0
2018-Jul-08 11:28N 38°31' W 008°52'0 0.0
2018-Jul-08 10:55N 38°31' W 008°52'0 0.0
2018-Jul-08 10:04N 38°31' W 008°52'0 0.0
2018-Jul-08 09:55N 38°31' W 008°52'0 0.0
2018-Jul-08 07:01N 38°31' W 008°52'0 0.0
2018-Jul-08 04:58N 38°31' W 008°52'0 0.0
2018-Jul-08 04:28N 38°31' W 008°52'0 0.0
2018-Jul-08 00:40N 38°31' W 008°52'0 0.0
2018-Jul-07 23:16N 38°31' W 008°52'0 0.0
2018-Jul-07 20:58N 38°31' W 008°52'0 0.0
2018-Jul-07 19:13N 38°31' W 008°52'0 0.0
2018-Jul-07 18:58N 38°31' W 008°52'0 0.0
2018-Jul-07 18:28N 38°31' W 008°52'0 0.0
2018-Jul-07 17:55N 38°31' W 008°52'0 0.0
2018-Jul-07 17:25N 38°31' W 008°52'0 0.0
2018-Jul-07 16:58N 38°31' W 008°52'0 0.0
2018-Jul-07 16:25N 38°31' W 008°52'0 0.0
2018-Jul-07 15:58N 38°31' W 008°52'0 0.0
2018-Jul-07 15:28N 38°31' W 008°52'0 0.0
2018-Jul-07 14:55N 38°31' W 008°52'0 0.0
2018-Jul-07 14:25N 38°31' W 008°52'0 0.0
2018-Jul-07 13:58N 38°31' W 008°52'0 0.0
2018-Jul-07 13:28N 38°31' W 008°52'0 0.0
2018-Jul-07 12:55N 38°31' W 008°52'0 0.0
2018-Jul-07 12:28N 38°31' W 008°52'0 0.0
2018-Jul-07 11:58N 38°31' W 008°52'0 0.0
2018-Jul-07 11:04N 38°31' W 008°52'0 0.0
2018-Jul-07 09:43N 38°31' W 008°52'0 0.0
2018-Jul-07 09:25N 38°31' W 008°52'0 0.0
2018-Jul-07 08:16N 38°31' W 008°52'0 0.0
2018-Jul-07 07:58N 38°31' W 008°52'0 0.0
2018-Jul-07 06:34N 38°31' W 008°52'0 0.0
2018-Jul-07 04:25N 38°31' W 008°52'0 0.0
2018-Jul-07 03:55N 38°31' W 008°52'0 0.0
2018-Jul-07 03:16N 38°31' W 008°52'0 0.0
2018-Jul-07 02:58N 38°31' W 008°52'0 0.0
2018-Jul-07 02:07N 38°31' W 008°52'0 0.0
2018-Jul-07 01:49N 38°31' W 008°52'0 0.0
2018-Jul-07 01:19N 38°31' W 008°52'0 0.0
2018-Jul-07 00:55N 38°31' W 008°52'0 0.0
2018-Jul-07 00:13N 38°31' W 008°52'0 0.0
2018-Jul-06 23:19N 38°31' W 008°52'0 0.0
2018-Jul-06 21:52N 38°31' W 008°52'0 0.0
2018-Jul-06 21:29N 38°31' W 008°52'0 0.7
2018-Jul-06 21:00N 38°31' W 008°53'3 5.2
2018-Jul-06 20:29N 38°29' W 008°56'510.8
2018-Jul-06 20:00N 38°25' W 009°00'4 7.6
2018-Jul-06 19:30N 38°22' W 009°00'1 1.0
2018-Jul-06 18:55N 38°21' W 009°00'1 1.1
2018-Jul-06 18:25N 38°21' W 009°01'1 1.1
2018-Jul-06 17:58N 38°22' W 009°01'1 1.2
2018-Jul-06 17:22N 38°22' W 009°02'0 1.2
2018-Jul-06 16:58N 38°22' W 009°03'1 1.2
2018-Jul-06 16:28N 38°22' W 009°04'1 1.3
2018-Jul-06 16:00N 38°23' W 009°04'1 1.5
2018-Jul-06 15:30N 38°23' W 009°04'4 7.8
2018-Jul-06 15:00N 38°24' W 009°09'510.4
2018-Jul-06 14:30N 38°24' W 009°16'611.6
2018-Jul-06 14:00N 38°27' W 009°22'611.9
2018-Jul-06 13:30N 38°31' W 009°28'611.8
2018-Jul-06 13:00N 38°35' W 009°34'611.4
2018-Jul-06 12:30N 38°38' W 009°40'611.4
2018-Jul-06 12:00N 38°43' W 009°42'611.6
2018-Jul-06 11:30N 38°49' W 009°43'611.7
2018-Jul-06 11:00N 38°55' W 009°43'611.8
2018-Jul-06 10:30N 39°01' W 009°43'611.7
2018-Jul-06 10:00N 39°06' W 009°44'612.8
2018-Jul-06 09:30N 39°13' W 009°44'11912.8
2018-Jul-06 00:14N 41°03' W 008°48'312.8
2018-Jul-05 23:59N 41°06' W 008°47'511.3
2018-Jul-05 23:30N 41°11' W 008°42'1 1.6
2018-Jul-05 22:58N 41°11' W 008°42'0 0.0
2018-Jul-05 22:28N 41°11' W 008°42'0 0.0
2018-Jul-05 21:58N 41°11' W 008°42'0 0.0
2018-Jul-05 21:28N 41°11' W 008°42'0 0.0
2018-Jul-05 20:58N 41°11' W 008°42'0 0.0
2018-Jul-05 20:28N 41°11' W 008°42'0 0.0
2018-Jul-05 19:58N 41°11' W 008°42'0 0.0
2018-Jul-05 19:28N 41°11' W 008°42'0 0.0
2018-Jul-05 18:58N 41°11' W 008°42'  

Dump ship's entire track history